Airfield :
LOGIN :

Register | Disclaimer

   EN    FR    IT 

 










Legend :    VFR   Marginal VFR   IFR   Intensive IFR   Very Intensive IFR
Visi :
Ceiling :
>= 8 km
>= 3000ft
5 to 8 km
1000 to 3000 ft
1500m to 5 km
500 to 1000 ft
800 to 1500m
200 to 500 ft
< 800m
< 200 ft
Symbols :   Thunderstorms  Fog  Heavy snow  Heavy precipitations  Wind > 20 kt
SIGMETs :     Misc.  Thunderstorms  Icing  Turbulence  Mountain Waves  Volcanic Ashes






- Airport Elevation : 277 ft
- IATA code : JER


EGJJ - Jersey

CURRENT METAR :
  • 171050Z 32014G24KT 280V020 9999 FEW028 10/03 Q1019

EXPIRED METARs :
  • 171020Z 32012G23KT 280V020 9999 SCT027 11/04 Q1019
  • 170950Z 32013G24KT 270V360 9999 FEW019 BKN026 10/05 Q1019
  • 170920Z 33010G21KT 300V020 9999 FEW018 SCT023 10/06 Q1019
  • 170850Z 31010KT 280V350 9999 VCSH FEW013 SCT020 10/06 Q1019
  • 170820Z 34007KT 290V020 9999 VCSH FEW004 SCT036 09/05 Q1019
  • 170750Z 30012KT 270V330 9999 VCSH FEW019 SCT023 09/06 Q1019
  • 170720Z 30009KT 270V330 9999 VCSH SCT018 09/06 Q1019
  • 170650Z 31006KT 270V350 9999 -SHRA SCT023 09/05 Q1019
  • 170620Z 32006KT 280V010 9999 SCT028 09/04 Q1019

TAF TAF EGJJ
Valid from the 17 at 09:00 until the 17 at 18:00 UTC


170754Z 1709/1718 33012KT 9999 SCT020
PROB30
TEMPO 1709/1718 34015G25KT 7000 SHRA BKN018TCU
ATIS : +44 1534 498 073



MET'MAP, your aeronautical weather chart ! - Copyright ORBIFLY December 2007 - Disclaimer

ORBIFLY MET'MAP TEAM :

Programming & Development : Alexandra Zaïnal
Original concept : Baudouin d'Aumeries
Technical & hardware support : Manuel Goepfert
Assistance : Marc-Olivier Méhu




SOURCES & CREDITS :

   NOAA